Juramento, Brazil
Current Conditions -  °F | °C
As of 1:00 PM on Sunday 21 Dec 2014 (Local Time) from SBMK Reporting Station
Broken Clouds Broken Clouds  
Wind Chill: 79°   Ceiling: 1500
Heat Index: 81°   Visibility: 6mi
Dew Point: 68°   Wind: 7mph
Humidity: 69%   Direction: 50°NE
Pressure: 30.06"   Gusts: NA
Location:  16.85°S, 43.59°W
Report Text: SBMK 211500Z 05006KT 9999 FEW010 BKN015 BKN100 26/20 Q1018
Loading
Personal Weather Stations






























Interactive Weather Map New forecast layout! Learn more

10-Day Weather Forecast

Advertisements
Track Severe Weather on mobile